sensor_id;sensor_type;location;lat;lon;timestamp;pressure;altitude;pressure_sealevel;temperature;humidity
64610;BME280;51019;46.090;6.350;2023-06-14T00:02:16;95879.47;;;17.78;100.00
64610;BME280;51019;46.090;6.350;2023-06-14T00:04:44;95942.69;;;18.07;100.00
64610;BME280;51019;46.090;6.350;2023-06-14T00:07:13;95919.81;;;17.73;100.00
64610;BME280;51019;46.090;6.350;2023-06-14T00:09:42;95860.38;;;17.28;100.00
64610;BME280;51019;46.090;6.350;2023-06-14T00:12:12;95924.69;;;17.63;100.00
64610;BME280;51019;46.090;6.350;2023-06-14T00:14:40;95941.75;;;17.48;100.00
64610;BME280;51019;46.090;6.350;2023-06-14T00:17:07;95933.63;;;17.56;100.00
64610;BME280;51019;46.090;6.350;2023-06-14T00:19:35;95942.25;;;17.84;100.00
64610;BME280;51019;46.090;6.350;2023-06-14T00:22:04;95921.00;;;17.58;100.00
64610;BME280;51019;46.090;6.350;2023-06-14T00:24:32;95926.09;;;17.59;100.00
64610;BME280;51019;46.090;6.350;2023-06-14T00:27:00;95944.28;;;17.69;100.00
64610;BME280;51019;46.090;6.350;2023-06-14T00:29:30;95885.31;;;17.47;100.00
64610;BME280;51019;46.090;6.350;2023-06-14T00:31:58;95896.91;;;17.53;100.00
64610;BME280;51019;46.090;6.350;2023-06-14T00:34:25;95947.94;;;17.68;100.00
64610;BME280;51019;46.090;6.350;2023-06-14T00:36:53;95933.25;;;17.72;100.00
64610;BME280;51019;46.090;6.350;2023-06-14T00:39:21;95895.03;;;17.33;100.00
64610;BME280;51019;46.090;6.350;2023-06-14T00:41:49;95931.44;;;17.79;100.00
64610;BME280;51019;46.090;6.350;2023-06-14T00:44:17;95917.97;;;17.74;100.00
64610;BME280;51019;46.090;6.350;2023-06-14T00:46:47;95944.91;;;17.77;100.00
64610;BME280;51019;46.090;6.350;2023-06-14T00:49:15;95927.09;;;17.58;100.00
64610;BME280;51019;46.090;6.350;2023-06-14T00:51:45;95940.84;;;17.82;100.00
64610;BME280;51019;46.090;6.350;2023-06-14T00:54:13;95935.75;;;17.80;100.00
64610;BME280;51019;46.090;6.350;2023-06-14T00:56:41;95937.56;;;17.86;100.00
64610;BME280;51019;46.090;6.350;2023-06-14T00:59:11;95925.53;;;17.84;100.00
64610;BME280;51019;46.090;6.350;2023-06-14T01:01:38;95873.69;;;17.55;100.00
64610;BME280;51019;46.090;6.350;2023-06-14T01:04:08;95868.16;;;17.50;100.00
64610;BME280;51019;46.090;6.350;2023-06-14T01:06:41;95846.28;;;17.08;100.00
64610;BME280;51019;46.090;6.350;2023-06-14T01:09:18;95852.09;;;16.84;100.00
64610;BME280;51019;46.090;6.350;2023-06-14T01:12:01;95937.66;;;17.52;100.00
64610;BME280;51019;46.090;6.350;2023-06-14T01:14:33;95875.69;;;17.26;100.00
64610;BME280;51019;46.090;6.350;2023-06-14T01:17:02;95880.59;;;17.42;100.00
64610;BME280;51019;46.090;6.350;2023-06-14T01:19:32;95895.28;;;17.52;100.00
64610;BME280;51019;46.090;6.350;2023-06-14T01:22:01;95933.69;;;17.75;100.00
64610;BME280;51019;46.090;6.350;2023-06-14T01:24:31;95917.56;;;17.64;100.00
64610;BME280;51019;46.090;6.350;2023-06-14T01:27:01;95919.78;;;17.60;100.00
64610;BME280;51019;46.090;6.350;2023-06-14T01:29:29;95940.22;;;17.80;100.00
64610;BME280;51019;46.090;6.350;2023-06-14T01:31:58;95934.31;;;17.71;100.00
64610;BME280;51019;46.090;6.350;2023-06-14T01:34:26;95939.56;;;17.64;100.00
64610;BME280;51019;46.090;6.350;2023-06-14T01:36:54;95947.06;;;17.48;100.00
64610;BME280;51019;46.090;6.350;2023-06-14T01:39:23;95941.06;;;17.26;100.00
64610;BME280;51019;46.090;6.350;2023-06-14T01:41:53;95865.19;;;16.92;100.00
64610;BME280;51019;46.090;6.350;2023-06-14T01:44:21;95944.41;;;17.54;100.00
64610;BME280;51019;46.090;6.350;2023-06-14T01:46:49;95898.47;;;17.21;100.00
64610;BME280;51019;46.090;6.350;2023-06-14T01:49:17;95943.72;;;17.26;100.00
64610;BME280;51019;46.090;6.350;2023-06-14T01:51:45;95942.69;;;17.27;100.00
64610;BME280;51019;46.090;6.350;2023-06-14T01:54:13;95925.91;;;17.06;100.00
64610;BME280;51019;46.090;6.350;2023-06-14T01:56:41;95943.84;;;17.11;100.00
64610;BME280;51019;46.090;6.350;2023-06-14T01:59:10;95951.22;;;17.22;100.00
64610;BME280;51019;46.090;6.350;2023-06-14T02:01:37;95863.66;;;16.69;100.00
64610;BME280;51019;46.090;6.350;2023-06-14T02:04:10;95826.84;;;16.40;100.00
64610;BME280;51019;46.090;6.350;2023-06-14T02:06:38;95912.41;;;16.95;100.00
64610;BME280;51019;46.090;6.350;2023-06-14T02:09:06;95848.69;;;16.21;100.00
64610;BME280;51019;46.090;6.350;2023-06-14T02:11:34;95899.34;;;16.52;100.00
64610;BME280;51019;46.090;6.350;2023-06-14T02:14:01;95841.63;;;16.28;100.00
64610;BME280;51019;46.090;6.350;2023-06-14T02:16:31;95837.75;;;16.24;100.00
64610;BME280;51019;46.090;6.350;2023-06-14T02:19:01;95913.63;;;16.58;100.00
64610;BME280;51019;46.090;6.350;2023-06-14T02:21:29;95928.88;;;16.56;100.00
64610;BME280;51019;46.090;6.350;2023-06-14T02:23:57;95950.41;;;16.53;100.00
64610;BME280;51019;46.090;6.350;2023-06-14T02:26:27;95955.03;;;16.44;100.00
64610;BME280;51019;46.090;6.350;2023-06-14T02:28:55;95943.56;;;16.37;100.00
64610;BME280;51019;46.090;6.350;2023-06-14T02:31:23;95954.16;;;16.37;100.00
64610;BME280;51019;46.090;6.350;2023-06-14T02:33:53;95912.75;;;15.95;100.00
64610;BME280;51019;46.090;6.350;2023-06-14T02:36:21;95950.22;;;16.26;100.00
64610;BME280;51019;46.090;6.350;2023-06-14T02:38:48;95957.72;;;16.23;100.00
64610;BME280;51019;46.090;6.350;2023-06-14T02:41:16;95885.50;;;15.67;100.00
64610;BME280;51019;46.090;6.350;2023-06-14T02:43:44;95928.72;;;16.08;100.00
64610;BME280;51019;46.090;6.350;2023-06-14T02:46:12;95867.09;;;15.58;100.00
64610;BME280;51019;46.090;6.350;2023-06-14T02:48:40;95854.97;;;15.43;100.00
64610;BME280;51019;46.090;6.350;2023-06-14T02:51:09;95956.13;;;16.01;100.00
64610;BME280;51019;46.090;6.350;2023-06-14T02:53:38;95941.94;;;16.08;100.00
64610;BME280;51019;46.090;6.350;2023-06-14T02:56:06;95936.66;;;16.08;100.00
64610;BME280;51019;46.090;6.350;2023-06-14T02:58:34;95912.44;;;15.62;100.00
64610;BME280;51019;46.090;6.350;2023-06-14T03:01:01;95902.34;;;15.66;100.00
64610;BME280;51019;46.090;6.350;2023-06-14T03:03:29;95922.66;;;15.65;100.00
64610;BME280;51019;46.090;6.350;2023-06-14T03:05:57;95873.31;;;15.51;100.00
64610;BME280;51019;46.090;6.350;2023-06-14T03:08:32;95957.69;;;15.95;100.00
64610;BME280;51019;46.090;6.350;2023-06-14T03:11:04;95969.84;;;15.68;100.00
64610;BME280;51019;46.090;6.350;2023-06-14T03:13:32;95958.56;;;15.45;100.00
64610;BME280;51019;46.090;6.350;2023-06-14T03:16:00;95978.50;;;15.47;100.00
64610;BME280;51019;46.090;6.350;2023-06-14T03:18:30;95953.91;;;15.47;100.00
64610;BME280;51019;46.090;6.350;2023-06-14T03:21:01;95848.16;;;14.76;100.00
64610;BME280;51019;46.090;6.350;2023-06-14T03:23:29;95881.19;;;15.08;100.00
64610;BME280;51019;46.090;6.350;2023-06-14T03:26:00;95873.06;;;14.74;100.00
64610;BME280;51019;46.090;6.350;2023-06-14T03:28:32;95852.63;;;14.46;100.00
64610;BME280;51019;46.090;6.350;2023-06-14T03:30:59;95909.00;;;14.75;100.00
64610;BME280;51019;46.090;6.350;2023-06-14T03:33:27;95971.47;;;15.18;100.00
64610;BME280;51019;46.090;6.350;2023-06-14T03:35:55;95952.19;;;15.03;100.00
64610;BME280;51019;46.090;6.350;2023-06-14T03:38:23;95974.56;;;15.22;100.00
64610;BME280;51019;46.090;6.350;2023-06-14T03:40:51;95950.19;;;15.05;100.00
64610;BME280;51019;46.090;6.350;2023-06-14T03:43:21;95952.69;;;15.13;100.00
64610;BME280;51019;46.090;6.350;2023-06-14T03:45:48;95951.38;;;14.88;100.00
64610;BME280;51019;46.090;6.350;2023-06-14T03:48:16;95978.84;;;14.79;100.00
64610;BME280;51019;46.090;6.350;2023-06-14T03:50:44;95989.31;;;14.87;100.00
64610;BME280;51019;46.090;6.350;2023-06-14T03:53:13;95986.97;;;14.77;100.00
64610;BME280;51019;46.090;6.350;2023-06-14T03:55:44;95866.41;;;14.04;100.00
64610;BME280;51019;46.090;6.350;2023-06-14T03:58:14;95995.50;;;14.94;100.00
64610;BME280;51019;46.090;6.350;2023-06-14T04:00:43;95993.03;;;14.93;100.00
64610;BME280;51019;46.090;6.350;2023-06-14T04:03:11;95924.75;;;14.53;100.00
64610;BME280;51019;46.090;6.350;2023-06-14T04:05:41;95995.94;;;14.83;100.00
64610;BME280;51019;46.090;6.350;2023-06-14T04:08:14;96003.16;;;14.74;100.00
64610;BME280;51019;46.090;6.350;2023-06-14T04:10:45;95927.69;;;14.21;100.00
64610;BME280;51019;46.090;6.350;2023-06-14T04:13:12;95885.84;;;14.03;100.00
64610;BME280;51019;46.090;6.350;2023-06-14T04:15:41;95986.75;;;14.64;100.00
64610;BME280;51019;46.090;6.350;2023-06-14T04:18:12;96011.53;;;14.78;100.00
64610;BME280;51019;46.090;6.350;2023-06-14T04:20:40;96012.97;;;14.95;100.00
64610;BME280;51019;46.090;6.350;2023-06-14T04:23:12;96022.44;;;14.89;100.00
64610;BME280;51019;46.090;6.350;2023-06-14T04:25:40;95979.50;;;14.66;100.00
64610;BME280;51019;46.090;6.350;2023-06-14T04:28:10;95960.78;;;14.38;100.00
64610;BME280;51019;46.090;6.350;2023-06-14T04:30:45;96015.41;;;14.82;100.00
64610;BME280;51019;46.090;6.350;2023-06-14T04:33:16;96018.78;;;14.76;100.00
64610;BME280;51019;46.090;6.350;2023-06-14T04:35:43;96015.22;;;14.69;100.00
64610;BME280;51019;46.090;6.350;2023-06-14T04:38:12;95886.09;;;13.94;100.00
64610;BME280;51019;46.090;6.350;2023-06-14T04:40:41;95970.78;;;14.28;100.00
64610;BME280;51019;46.090;6.350;2023-06-14T04:43:11;95969.59;;;14.31;100.00
64610;BME280;51019;46.090;6.350;2023-06-14T04:45:43;96008.34;;;14.45;100.00
64610;BME280;51019;46.090;6.350;2023-06-14T04:48:12;96032.25;;;14.66;100.00
64610;BME280;51019;46.090;6.350;2023-06-14T04:50:41;95972.81;;;14.41;100.00
64610;BME280;51019;46.090;6.350;2023-06-14T04:53:09;95951.75;;;14.56;100.00
64610;BME280;51019;46.090;6.350;2023-06-14T04:55:37;95945.09;;;14.60;100.00
64610;BME280;51019;46.090;6.350;2023-06-14T04:58:05;95942.81;;;14.57;100.00
64610;BME280;51019;46.090;6.350;2023-06-14T05:00:33;96032.41;;;15.53;100.00
64610;BME280;51019;46.090;6.350;2023-06-14T05:03:00;96018.19;;;15.54;100.00
64610;BME280;51019;46.090;6.350;2023-06-14T05:05:28;95998.66;;;15.34;100.00
64610;BME280;51019;46.090;6.350;2023-06-14T05:07:57;95947.97;;;15.23;100.00
64610;BME280;51019;46.090;6.350;2023-06-14T05:10:25;96041.84;;;16.13;100.00
64610;BME280;51019;46.090;6.350;2023-06-14T05:12:52;96036.66;;;16.26;100.00
64610;BME280;51019;46.090;6.350;2023-06-14T05:15:19;95994.75;;;16.02;100.00
64610;BME280;51019;46.090;6.350;2023-06-14T05:17:50;95974.13;;;15.90;100.00
64610;BME280;51019;46.090;6.350;2023-06-14T05:20:20;96045.91;;;16.58;100.00
64610;BME280;51019;46.090;6.350;2023-06-14T05:22:50;96045.44;;;16.54;100.00
64610;BME280;51019;46.090;6.350;2023-06-14T05:25:20;96047.97;;;16.62;100.00
64610;BME280;51019;46.090;6.350;2023-06-14T05:27:48;96045.16;;;16.43;100.00
64610;BME280;51019;46.090;6.350;2023-06-14T05:30:16;96044.97;;;16.44;100.00
64610;BME280;51019;46.090;6.350;2023-06-14T05:32:44;96038.63;;;16.94;100.00
64610;BME280;51019;46.090;6.350;2023-06-14T05:35:11;96045.16;;;17.26;100.00
64610;BME280;51019;46.090;6.350;2023-06-14T05:37:39;96040.56;;;17.07;100.00
64610;BME280;51019;46.090;6.350;2023-06-14T05:40:10;96032.53;;;17.28;100.00
64610;BME280;51019;46.090;6.350;2023-06-14T05:42:40;96037.94;;;17.48;100.00
64610;BME280;51019;46.090;6.350;2023-06-14T05:45:08;96041.31;;;17.70;100.00
64610;BME280;51019;46.090;6.350;2023-06-14T05:47:35;96045.03;;;17.95;100.00
64610;BME280;51019;46.090;6.350;2023-06-14T05:50:04;96048.56;;;18.09;100.00
64610;BME280;51019;46.090;6.350;2023-06-14T05:52:31;96049.63;;;18.34;100.00
64610;BME280;51019;46.090;6.350;2023-06-14T05:54:59;96051.03;;;18.30;100.00
64610;BME280;51019;46.090;6.350;2023-06-14T05:57:26;96045.16;;;18.55;100.00
64610;BME280;51019;46.090;6.350;2023-06-14T05:59:55;96051.09;;;18.70;100.00
64610;BME280;51019;46.090;6.350;2023-06-14T06:02:22;96037.44;;;18.73;100.00
64610;BME280;51019;46.090;6.350;2023-06-14T06:04:49;96057.84;;;18.92;100.00
64610;BME280;51019;46.090;6.350;2023-06-14T06:07:17;96052.25;;;19.27;100.00
64610;BME280;51019;46.090;6.350;2023-06-14T06:09:44;95957.59;;;18.41;100.00
64610;BME280;51019;46.090;6.350;2023-06-14T06:12:13;96017.78;;;18.87;100.00
64610;BME280;51019;46.090;6.350;2023-06-14T06:14:40;96013.59;;;19.37;100.00
64610;BME280;51019;46.090;6.350;2023-06-14T06:17:10;96056.81;;;19.84;95.83
64610;BME280;51019;46.090;6.350;2023-06-14T06:19:37;96061.56;;;20.13;95.57
64610;BME280;51019;46.090;6.350;2023-06-14T06:22:05;96055.97;;;20.21;85.42
64610;BME280;51019;46.090;6.350;2023-06-14T06:24:33;96055.56;;;20.24;84.86
64610;BME280;51019;46.090;6.350;2023-06-14T06:27:00;96061.63;;;20.31;83.11
64610;BME280;51019;46.090;6.350;2023-06-14T06:29:29;95993.59;;;20.17;83.38
64610;BME280;51019;46.090;6.350;2023-06-14T06:31:57;96028.63;;;20.71;80.23
64610;BME280;51019;46.090;6.350;2023-06-14T06:34:26;96058.69;;;20.15;87.92
64610;BME280;51019;46.090;6.350;2023-06-14T06:36:54;96019.19;;;20.12;87.34
64610;BME280;51019;46.090;6.350;2023-06-14T06:39:21;96053.34;;;20.78;83.33
64610;BME280;51019;46.090;6.350;2023-06-14T06:41:48;96056.50;;;20.93;85.64
64610;BME280;51019;46.090;6.350;2023-06-14T06:44:15;96061.34;;;20.78;92.32
64610;BME280;51019;46.090;6.350;2023-06-14T06:46:43;96048.56;;;20.30;92.01
64610;BME280;51019;46.090;6.350;2023-06-14T06:49:11;96066.75;;;20.33;95.24
64610;BME280;51019;46.090;6.350;2023-06-14T06:51:42;96065.97;;;19.88;97.09
64610;BME280;51019;46.090;6.350;2023-06-14T06:54:11;96069.97;;;20.48;93.49
64610;BME280;51019;46.090;6.350;2023-06-14T06:56:38;96068.09;;;20.80;91.79
64610;BME280;51019;46.090;6.350;2023-06-14T06:59:05;96063.97;;;21.09;88.97
64610;BME280;51019;46.090;6.350;2023-06-14T07:01:33;96064.44;;;20.99;89.96
64610;BME280;51019;46.090;6.350;2023-06-14T07:04:01;96063.66;;;20.99;86.21
64610;BME280;51019;46.090;6.350;2023-06-14T07:06:29;96005.28;;;20.48;84.39
64610;BME280;51019;46.090;6.350;2023-06-14T07:08:58;96082.31;;;20.92;83.63
64610;BME280;51019;46.090;6.350;2023-06-14T07:11:26;96074.38;;;21.11;82.23
64610;BME280;51019;46.090;6.350;2023-06-14T07:13:54;96086.66;;;21.12;79.84
64610;BME280;51019;46.090;6.350;2023-06-14T07:16:21;96073.19;;;21.07;81.18
64610;BME280;51019;46.090;6.350;2023-06-14T07:18:49;96081.41;;;21.05;84.64
64610;BME280;51019;46.090;6.350;2023-06-14T07:21:17;96082.97;;;21.56;77.90
64610;BME280;51019;46.090;6.350;2023-06-14T07:23:44;96081.56;;;21.71;77.42
64610;BME280;51019;46.090;6.350;2023-06-14T07:26:14;96047.94;;;21.34;76.14
64610;BME280;51019;46.090;6.350;2023-06-14T07:28:41;96016.53;;;21.36;71.95
64610;BME280;51019;46.090;6.350;2023-06-14T07:31:10;96074.22;;;21.85;67.41
64610;BME280;51019;46.090;6.350;2023-06-14T07:33:38;96071.06;;;21.77;65.49
64610;BME280;51019;46.090;6.350;2023-06-14T07:36:05;96092.47;;;22.06;63.57
64610;BME280;51019;46.090;6.350;2023-06-14T07:38:33;96073.88;;;22.00;63.44
64610;BME280;51019;46.090;6.350;2023-06-14T07:41:00;96079.88;;;21.77;65.01
64610;BME280;51019;46.090;6.350;2023-06-14T07:43:29;96014.31;;;21.69;59.73
64610;BME280;51019;46.090;6.350;2023-06-14T07:45:56;96010.72;;;22.12;60.63
64610;BME280;51019;46.090;6.350;2023-06-14T07:48:24;96074.81;;;22.05;61.37
64610;BME280;51019;46.090;6.350;2023-06-14T07:50:51;96088.63;;;22.32;60.37
64610;BME280;51019;46.090;6.350;2023-06-14T07:53:19;96085.56;;;22.17;59.87
64610;BME280;51019;46.090;6.350;2023-06-14T07:55:47;96088.91;;;22.42;57.85
64610;BME280;51019;46.090;6.350;2023-06-14T07:58:17;96089.56;;;22.38;58.71
64610;BME280;51019;46.090;6.350;2023-06-14T08:00:46;96088.00;;;22.90;56.53
64610;BME280;51019;46.090;6.350;2023-06-14T08:03:13;96089.31;;;23.11;53.62
64610;BME280;51019;46.090;6.350;2023-06-14T08:05:41;96087.31;;;23.30;54.02
64610;BME280;51019;46.090;6.350;2023-06-14T08:08:08;96090.34;;;23.33;54.55
64610;BME280;51019;46.090;6.350;2023-06-14T08:10:35;96085.13;;;23.27;53.30
64610;BME280;51019;46.090;6.350;2023-06-14T08:13:03;96087.22;;;23.25;52.89
64610;BME280;51019;46.090;6.350;2023-06-14T08:15:30;96092.22;;;23.21;52.53
64610;BME280;51019;46.090;6.350;2023-06-14T08:18:00;96072.09;;;23.65;49.39
64610;BME280;51019;46.090;6.350;2023-06-14T08:20:28;96089.28;;;23.81;48.47
64610;BME280;51019;46.090;6.350;2023-06-14T08:22:57;96015.63;;;23.03;49.34
64610;BME280;51019;46.090;6.350;2023-06-14T08:25:24;96047.66;;;22.68;48.09
64610;BME280;51019;46.090;6.350;2023-06-14T08:27:52;96061.41;;;23.30;51.06
64610;BME280;51019;46.090;6.350;2023-06-14T08:30:19;96082.59;;;23.55;47.73
64610;BME280;51019;46.090;6.350;2023-06-14T08:32:47;96074.88;;;23.70;47.40
64610;BME280;51019;46.090;6.350;2023-06-14T08:35:17;96088.88;;;24.01;44.90
64610;BME280;51019;46.090;6.350;2023-06-14T08:37:44;96076.25;;;23.73;41.80
64610;BME280;51019;46.090;6.350;2023-06-14T08:40:18;96082.66;;;23.72;43.68
64610;BME280;51019;46.090;6.350;2023-06-14T08:42:50;96076.84;;;23.75;44.18
64610;BME280;51019;46.090;6.350;2023-06-14T08:45:18;96087.69;;;23.22;40.69
64610;BME280;51019;46.090;6.350;2023-06-14T08:47:46;96058.50;;;23.67;41.25
64610;BME280;51019;46.090;6.350;2023-06-14T08:50:20;96035.41;;;23.89;42.75
64610;BME280;51019;46.090;6.350;2023-06-14T08:52:53;96086.06;;;24.07;44.55
64610;BME280;51019;46.090;6.350;2023-06-14T08:55:23;96084.16;;;24.19;43.38
64610;BME280;51019;46.090;6.350;2023-06-14T08:57:54;96082.34;;;24.65;40.69
64610;BME280;51019;46.090;6.350;2023-06-14T09:00:23;96064.47;;;24.54;43.42
64610;BME280;51019;46.090;6.350;2023-06-14T09:02:50;96081.63;;;24.70;41.87
64610;BME280;51019;46.090;6.350;2023-06-14T09:05:25;96072.56;;;24.71;39.87
64610;BME280;51019;46.090;6.350;2023-06-14T09:07:53;96054.91;;;24.75;38.33
64610;BME280;51019;46.090;6.350;2023-06-14T09:10:25;96081.38;;;24.54;38.51
64610;BME280;51019;46.090;6.350;2023-06-14T09:12:55;96076.72;;;24.95;38.54
64610;BME280;51019;46.090;6.350;2023-06-14T09:15:22;96077.22;;;24.64;39.17
64610;BME280;51019;46.090;6.350;2023-06-14T09:17:50;96076.72;;;23.81;40.62
64610;BME280;51019;46.090;6.350;2023-06-14T09:20:17;95998.44;;;24.93;39.82
64610;BME280;51019;46.090;6.350;2023-06-14T09:22:46;96070.72;;;25.60;37.94
64610;BME280;51019;46.090;6.350;2023-06-14T09:25:14;96072.31;;;25.78;37.79
64610;BME280;51019;46.090;6.350;2023-06-14T09:27:41;96074.47;;;25.59;39.46
64610;BME280;51019;46.090;6.350;2023-06-14T09:30:10;96071.81;;;25.42;37.00
64610;BME280;51019;46.090;6.350;2023-06-14T09:32:39;96074.44;;;25.37;38.17
64610;BME280;51019;46.090;6.350;2023-06-14T09:35:08;96075.63;;;25.85;38.94
64610;BME280;51019;46.090;6.350;2023-06-14T09:37:36;96069.84;;;25.71;37.00
64610;BME280;51019;46.090;6.350;2023-06-14T09:40:08;96067.59;;;25.29;35.66
64610;BME280;51019;46.090;6.350;2023-06-14T09:42:36;96080.63;;;25.98;36.27
64610;BME280;51019;46.090;6.350;2023-06-14T09:45:06;96068.78;;;25.94;36.96
64610;BME280;51019;46.090;6.350;2023-06-14T09:47:36;96079.69;;;26.09;38.75
64610;BME280;51019;46.090;6.350;2023-06-14T09:50:04;96063.53;;;26.04;38.89
64610;BME280;51019;46.090;6.350;2023-06-14T09:52:32;96077.16;;;26.73;34.14
64610;BME280;51019;46.090;6.350;2023-06-14T09:55:00;96080.53;;;26.58;35.62
64610;BME280;51019;46.090;6.350;2023-06-14T09:57:33;96077.75;;;26.53;36.28
64610;BME280;51019;46.090;6.350;2023-06-14T10:00:01;96083.03;;;26.43;36.47
64610;BME280;51019;46.090;6.350;2023-06-14T10:02:36;96078.16;;;26.67;36.04
64610;BME280;51019;46.090;6.350;2023-06-14T10:05:05;96065.06;;;27.02;38.83
64610;BME280;51019;46.090;6.350;2023-06-14T10:07:40;96043.88;;;27.11;36.80
64610;BME280;51019;46.090;6.350;2023-06-14T10:10:09;96079.03;;;27.36;36.07
64610;BME280;51019;46.090;6.350;2023-06-14T10:12:39;96070.28;;;27.14;35.23
64610;BME280;51019;46.090;6.350;2023-06-14T10:15:09;96060.72;;;26.69;34.91
64610;BME280;51019;46.090;6.350;2023-06-14T10:17:43;96075.97;;;26.59;34.63
64610;BME280;51019;46.090;6.350;2023-06-14T10:20:26;95971.06;;;26.22;35.95
64610;BME280;51019;46.090;6.350;2023-06-14T10:23:01;96005.81;;;26.28;35.29
64610;BME280;51019;46.090;6.350;2023-06-14T10:25:31;96020.25;;;26.49;36.17
64610;BME280;51019;46.090;6.350;2023-06-14T10:28:21;96065.94;;;27.08;31.93
64610;BME280;51019;46.090;6.350;2023-06-14T10:31:03;96046.72;;;26.94;33.74
64610;BME280;51019;46.090;6.350;2023-06-14T10:33:31;96065.91;;;27.45;32.08
64610;BME280;51019;46.090;6.350;2023-06-14T10:36:25;96064.97;;;27.61;31.59
64610;BME280;51019;46.090;6.350;2023-06-14T10:39:01;96060.25;;;27.46;32.95
64610;BME280;51019;46.090;6.350;2023-06-14T10:41:31;96024.41;;;27.31;34.29
64610;BME280;51019;46.090;6.350;2023-06-14T10:47:29;96053.13;;;27.62;31.15
64610;BME280;51019;46.090;6.350;2023-06-14T10:50:04;96058.56;;;27.72;29.44
64610;BME280;51019;46.090;6.350;2023-06-14T10:52:34;96056.75;;;27.93;30.42
64610;BME280;51019;46.090;6.350;2023-06-14T10:55:04;96029.88;;;27.98;29.88
64610;BME280;51019;46.090;6.350;2023-06-14T10:57:34;96063.00;;;27.99;31.24
64610;BME280;51019;46.090;6.350;2023-06-14T11:00:03;96064.63;;;28.05;28.42
64610;BME280;51019;46.090;6.350;2023-06-14T11:05:58;96059.06;;;28.22;28.48
64610;BME280;51019;46.090;6.350;2023-06-14T11:08:44;96059.25;;;28.15;28.38
64610;BME280;51019;46.090;6.350;2023-06-14T11:11:13;96061.16;;;28.09;28.46
64610;BME280;51019;46.090;6.350;2023-06-14T11:13:45;96055.84;;;28.35;27.95
64610;BME280;51019;46.090;6.350;2023-06-14T11:16:13;96042.69;;;28.74;28.21
64610;BME280;51019;46.090;6.350;2023-06-14T11:18:41;96057.44;;;28.26;27.19
64610;BME280;51019;46.090;6.350;2023-06-14T11:21:10;96056.72;;;28.71;27.19
64610;BME280;51019;46.090;6.350;2023-06-14T11:23:39;96021.38;;;28.67;27.37
64610;BME280;51019;46.090;6.350;2023-06-14T11:26:07;96052.97;;;29.12;26.22
64610;BME280;51019;46.090;6.350;2023-06-14T11:28:36;96033.84;;;29.09;27.64
64610;BME280;51019;46.090;6.350;2023-06-14T11:31:04;96051.88;;;29.49;27.44
64610;BME280;51019;46.090;6.350;2023-06-14T11:33:31;96046.75;;;29.17;25.94
64610;BME280;51019;46.090;6.350;2023-06-14T11:35:58;96047.59;;;28.97;26.86
64610;BME280;51019;46.090;6.350;2023-06-14T11:38:30;96027.34;;;29.05;26.29
64610;BME280;51019;46.090;6.350;2023-06-14T11:41:00;96007.09;;;29.43;26.73
64610;BME280;51019;46.090;6.350;2023-06-14T11:43:27;96011.78;;;29.86;25.90
64610;BME280;51019;46.090;6.350;2023-06-14T11:45:57;96036.31;;;30.05;25.76
64610;BME280;51019;46.090;6.350;2023-06-14T11:48:35;96011.75;;;30.02;25.30
64610;BME280;51019;46.090;6.350;2023-06-14T11:51:03;96034.88;;;29.43;25.17
64610;BME280;51019;46.090;6.350;2023-06-14T11:53:31;96034.19;;;30.02;26.06
64610;BME280;51019;46.090;6.350;2023-06-14T11:56:00;96044.19;;;29.96;24.98
64610;BME280;51019;46.090;6.350;2023-06-14T11:58:29;95949.63;;;29.17;23.13
64610;BME280;51019;46.090;6.350;2023-06-14T12:00:56;96040.69;;;29.96;24.38
64610;BME280;51019;46.090;6.350;2023-06-14T12:03:24;96028.19;;;30.59;23.78
64610;BME280;51019;46.090;6.350;2023-06-14T12:06:02;96032.19;;;30.23;22.69
64610;BME280;51019;46.090;6.350;2023-06-14T12:08:34;96019.28;;;30.10;23.37
64610;BME280;51019;46.090;6.350;2023-06-14T12:11:04;95950.66;;;29.46;23.17
64610;BME280;51019;46.090;6.350;2023-06-14T12:13:34;96024.09;;;30.18;24.75
64610;BME280;51019;46.090;6.350;2023-06-14T12:16:01;96019.50;;;30.18;24.10
64610;BME280;51019;46.090;6.350;2023-06-14T12:18:33;96019.41;;;30.78;23.10
64610;BME280;51019;46.090;6.350;2023-06-14T12:21:01;95989.16;;;30.71;22.49
64610;BME280;51019;46.090;6.350;2023-06-14T12:23:45;96023.22;;;31.05;21.38
64610;BME280;51019;46.090;6.350;2023-06-14T12:26:14;96022.41;;;30.27;21.83
64610;BME280;51019;46.090;6.350;2023-06-14T12:28:42;96016.81;;;30.96;22.16
64610;BME280;51019;46.090;6.350;2023-06-14T12:31:11;96020.06;;;31.27;21.84
64610;BME280;51019;46.090;6.350;2023-06-14T12:33:39;96012.56;;;31.19;19.33
64610;BME280;51019;46.090;6.350;2023-06-14T12:36:08;96024.47;;;31.18;19.97
64610;BME280;51019;46.090;6.350;2023-06-14T12:38:35;96012.25;;;31.50;20.93
64610;BME280;51019;46.090;6.350;2023-06-14T12:41:04;96007.66;;;31.26;20.22
64610;BME280;51019;46.090;6.350;2023-06-14T12:43:33;96022.69;;;31.09;21.77
64610;BME280;51019;46.090;6.350;2023-06-14T12:46:00;96016.38;;;31.18;21.27
64610;BME280;51019;46.090;6.350;2023-06-14T12:48:27;96016.25;;;31.28;21.40
64610;BME280;51019;46.090;6.350;2023-06-14T12:50:56;95969.38;;;30.75;21.89
64610;BME280;51019;46.090;6.350;2023-06-14T12:53:24;96004.09;;;30.97;21.44
64610;BME280;51019;46.090;6.350;2023-06-14T12:55:51;96019.53;;;31.54;21.40
64610;BME280;51019;46.090;6.350;2023-06-14T12:58:20;96016.72;;;31.12;21.70
64610;BME280;51019;46.090;6.350;2023-06-14T13:00:49;96019.50;;;31.30;21.69
64610;BME280;51019;46.090;6.350;2023-06-14T13:03:16;96005.63;;;31.37;21.87
64610;BME280;51019;46.090;6.350;2023-06-14T13:05:43;96015.91;;;31.11;21.85
64610;BME280;51019;46.090;6.350;2023-06-14T13:08:10;96011.06;;;31.37;19.79
64610;BME280;51019;46.090;6.350;2023-06-14T13:10:37;96027.53;;;31.69;21.71
64610;BME280;51019;46.090;6.350;2023-06-14T13:13:05;96011.50;;;31.44;22.40